Time;durP1;ratioP1;P1;durP2;ratioP2;P2;SDS_P1;SDS_P2;PMS_P1;PMS_P2;Temp;Humidity;BMP_temperature;BMP_pressure;BME280_temperature;BME280_humidity;BME280_pressure;Samples;Min_cycle;Max_cycle;Signal;HPM_P1;HPM_P2
2023/12/13 00:02:00;;;;;;;74.20;55.30;;;;;;;2.93;100.00;97888.31;109545;1251;58856;-73
2023/12/13 00:04:26;;;;;;;73.30;51.90;;;;;;;2.93;100.00;97879.02;109557;1251;59003;-74
2023/12/13 00:06:53;;;;;;;69.10;51.10;;;;;;;2.92;100.00;97871.33;109584;1251;67030;-73
2023/12/13 00:09:19;;;;;;;68.20;52.20;;;;;;;2.92;100.00;97866.42;109572;1251;61028;-74
2023/12/13 00:11:46;;;;;;;70.30;50.60;;;;;;;2.91;100.00;97863.64;109568;1251;64065;-74
2023/12/13 00:14:13;;;;;;;69.30;50.60;;;;;;;2.90;100.00;97859.54;109520;1251;59031;-74
2023/12/13 00:16:39;;;;;;;75.90;52.30;;;;;;;2.89;100.00;97857.81;109371;1251;59047;-73
2023/12/13 00:19:06;;;;;;;73.90;51.30;;;;;;;2.89;100.00;97853.95;109554;1251;67216;-73
2023/12/13 00:21:33;;;;;;;74.10;51.30;;;;;;;2.88;100.00;97849.27;109566;1251;61009;-73
2023/12/13 00:23:59;;;;;;;67.80;49.70;;;;;;;2.87;100.00;97846.70;109563;1251;65375;-73
2023/12/13 00:26:26;;;;;;;72.30;50.00;;;;;;;2.87;100.00;97849.67;109557;1251;59011;-73
2023/12/13 00:28:53;;;;;;;68.50;48.40;;;;;;;2.88;100.00;97852.77;109611;1251;58954;-74
2023/12/13 00:31:20;;;;;;;64.50;48.60;;;;;;;2.89;100.00;97847.13;109568;1250;65986;-74
2023/12/13 00:33:47;;;;;;;63.30;46.00;;;;;;;2.89;100.00;97840.29;109530;1251;61145;-74
2023/12/13 00:36:14;;;;;;;65.90;47.70;;;;;;;2.90;100.00;97829.88;109574;1251;65253;-74
2023/12/13 00:38:40;;;;;;;64.90;47.90;;;;;;;2.91;100.00;97822.11;109592;1251;59256;-74
2023/12/13 00:41:07;;;;;;;64.50;46.50;;;;;;;2.91;100.00;97822.06;109577;1251;59024;-74
2023/12/13 00:43:34;;;;;;;63.90;46.60;;;;;;;2.91;100.00;97828.05;109598;1250;66134;-74
2023/12/13 00:46:01;;;;;;;65.00;45.10;;;;;;;2.91;100.00;97827.71;109580;1251;61086;-74
2023/12/13 00:48:27;;;;;;;61.50;44.40;;;;;;;2.92;100.00;97825.35;109285;1251;64046;-73
2023/12/13 00:50:56;;;;;;;63.30;46.10;;;;;;;2.93;100.00;97824.46;109518;1251;59016;-74
2023/12/13 00:53:22;;;;;;;59.20;44.60;;;;;;;2.93;100.00;97822.15;109552;1251;59498;-73
2023/12/13 00:55:51;;;;;;;60.90;44.80;;;;;;;2.94;100.00;97814.39;109593;1251;66150;-74
2023/12/13 00:58:18;;;;;;;62.70;45.00;;;;;;;2.94;100.00;97820.36;109601;1251;60119;-74
2023/12/13 01:00:45;;;;;;;64.80;45.10;;;;;;;2.93;100.00;97827.76;109613;1251;63961;-73
2023/12/13 01:03:11;;;;;;;58.60;44.10;;;;;;;2.93;100.00;97821.11;109345;1251;59144;-74
2023/12/13 01:05:38;;;;;;;66.50;47.10;;;;;;;2.92;100.00;97809.94;109544;1251;59147;-74
2023/12/13 01:08:05;;;;;;;65.20;47.00;;;;;;;2.92;100.00;97799.05;109593;1251;67000;-74
2023/12/13 01:10:31;;;;;;;66.20;47.10;;;;;;;2.92;100.00;97793.46;109580;1250;61006;-74
2023/12/13 01:12:58;;;;;;;67.80;46.20;;;;;;;2.92;100.00;97796.06;109607;1251;64206;-73
2023/12/13 01:15:25;;;;;;;67.70;47.60;;;;;;;2.93;100.00;97795.33;109544;1251;58964;-72
2023/12/13 01:17:52;;;;;;;61.30;44.90;;;;;;;2.94;100.00;97795.10;109525;1251;58950;-74
2023/12/13 01:20:18;;;;;;;62.70;41.90;;;;;;;2.94;100.00;97785.24;109417;1251;67200;-74
2023/12/13 01:22:45;;;;;;;63.20;44.70;;;;;;;2.95;100.00;97783.47;109621;1251;61498;-74
2023/12/13 01:25:11;;;;;;;59.00;43.60;;;;;;;2.96;100.00;97784.45;109522;1251;63990;-72
2023/12/13 01:27:38;;;;;;;57.30;43.40;;;;;;;2.97;100.00;97785.62;109575;1251;59028;-74
2023/12/13 01:30:08;;;;;;;58.30;42.70;;;;;;;2.97;100.00;97788.76;109567;1251;59174;-74
2023/12/13 01:32:34;;;;;;;56.70;41.60;;;;;;;2.98;100.00;97791.67;109560;1250;65999;-74
2023/12/13 01:35:02;;;;;;;58.80;42.20;;;;;;;3.00;100.00;97788.61;109381;1251;60044;-74
2023/12/13 01:37:29;;;;;;;50.60;38.20;;;;;;;3.01;100.00;97779.79;109556;1251;65112;-74
2023/12/13 01:39:56;;;;;;;55.20;40.90;;;;;;;3.02;100.00;97775.70;109575;1251;58954;-74
2023/12/13 01:42:24;;;;;;;56.50;40.10;;;;;;;3.04;100.00;97778.20;109554;1251;58857;-74
2023/12/13 01:44:51;;;;;;;54.00;40.10;;;;;;;3.05;100.00;97779.19;109564;1251;66022;-74
2023/12/13 01:47:18;;;;;;;55.00;39.20;;;;;;;3.06;100.00;97769.45;109597;1251;60154;-74
2023/12/13 01:49:45;;;;;;;54.50;37.50;;;;;;;3.07;100.00;97763.61;109561;1251;64053;-74
2023/12/13 01:52:14;;;;;;;50.30;38.40;;;;;;;3.08;100.00;97758.84;109354;1254;59144;-74
2023/12/13 01:54:41;;;;;;;54.90;39.90;;;;;;;3.09;100.00;97756.16;109554;1251;59156;-74
2023/12/13 01:57:09;;;;;;;50.80;38.80;;;;;;;3.11;100.00;97749.24;109564;1251;66010;-73
2023/12/13 01:59:37;;;;;;;49.90;37.80;;;;;;;3.11;100.00;97743.44;109602;1251;60056;-74
2023/12/13 02:02:04;;;;;;;48.50;36.50;;;;;;;3.11;100.00;97741.48;109568;1251;65312;-74
2023/12/13 02:04:32;;;;;;;52.50;37.40;;;;;;;3.12;100.00;97735.66;109617;1251;59251;-74
2023/12/13 02:06:59;;;;;;;49.10;37.60;;;;;;;3.12;100.00;97728.98;109590;1251;59151;-74
2023/12/13 02:09:25;;;;;;;49.40;36.40;;;;;;;3.12;100.00;97721.09;109545;1250;66997;-74
2023/12/13 02:11:52;;;;;;;47.80;37.10;;;;;;;3.12;100.00;97725.85;109441;1251;59160;-74
2023/12/13 02:14:19;;;;;;;53.30;38.80;;;;;;;3.12;100.00;97726.38;109583;1251;63998;-74
2023/12/13 02:16:45;;;;;;;54.00;38.20;;;;;;;3.12;100.00;97733.03;109499;1251;59085;-74
2023/12/13 02:19:12;;;;;;;48.20;36.90;;;;;;;3.13;100.00;97730.88;109560;1251;59038;-74
2023/12/13 02:21:39;;;;;;;52.80;39.10;;;;;;;3.13;100.00;97722.44;109556;1251;66139;-74
2023/12/13 02:24:08;;;;;;;53.80;38.40;;;;;;;3.13;100.00;97718.55;109547;1251;61087;-74
2023/12/13 02:26:40;;;;;;;51.50;36.80;;;;;;;3.13;100.00;97716.28;109595;1251;64162;-74
2023/12/13 02:29:08;;;;;;;49.70;38.30;;;;;;;3.12;100.00;97713.90;109572;1251;58945;-74
2023/12/13 02:31:35;;;;;;;57.40;40.80;;;;;;;3.11;100.00;97710.77;109572;1251;59134;-74
2023/12/13 02:34:02;;;;;;;53.50;37.70;;;;;;;3.11;100.00;97705.37;109561;1251;67264;-74
2023/12/13 02:36:28;;;;;;;53.60;36.30;;;;;;;3.10;100.00;97695.56;109561;1251;61061;-74
2023/12/13 02:38:55;;;;;;;52.60;36.40;;;;;;;3.11;100.00;97690.98;109564;1251;65211;-74
2023/12/13 02:41:22;;;;;;;47.70;36.70;;;;;;;3.11;100.00;97688.34;109553;1251;59319;-74
2023/12/13 02:43:48;;;;;;;44.00;33.50;;;;;;;3.11;100.00;97687.28;109620;1251;58927;-74
2023/12/13 02:46:15;;;;;;;47.00;34.40;;;;;;;3.11;100.00;97684.13;109586;1251;67265;-74
2023/12/13 02:48:42;;;;;;;44.90;34.10;;;;;;;3.11;100.00;97680.95;109580;1250;59789;-74
2023/12/13 02:51:08;;;;;;;45.70;34.70;;;;;;;3.11;100.00;97680.79;109555;1251;64070;-73
2023/12/13 02:53:35;;;;;;;45.40;33.00;;;;;;;3.11;100.00;97681.14;109562;1251;58999;-73
2023/12/13 02:56:02;;;;;;;42.50;32.30;;;;;;;3.11;100.00;97685.00;109559;1251;59099;-73
2023/12/13 02:58:28;;;;;;;46.20;32.00;;;;;;;3.11;100.00;97681.48;109566;1251;66938;-73
2023/12/13 03:00:55;;;;;;;42.60;32.50;;;;;;;3.11;100.00;97672.20;109572;1251;61250;-73
2023/12/13 03:03:22;;;;;;;49.40;34.00;;;;;;;3.10;100.00;97670.84;109559;1251;64820;-73
2023/12/13 03:05:48;;;;;;;48.90;35.60;;;;;;;3.08;100.00;97669.01;109571;1251;58936;-73
2023/12/13 03:08:16;;;;;;;47.00;33.90;;;;;;;3.07;100.00;97666.81;109551;1251;59111;-72
2023/12/13 03:10:43;;;;;;;43.70;32.50;;;;;;;3.05;100.00;97667.77;109567;1251;67028;-73
2023/12/13 03:13:10;;;;;;;40.80;31.30;;;;;;;3.04;100.00;97663.48;109603;1250;61435;-72
2023/12/13 03:15:36;;;;;;;43.80;32.90;;;;;;;3.04;100.00;97662.23;109400;1251;65129;-73
2023/12/13 03:18:03;;;;;;;44.90;33.10;;;;;;;3.03;100.00;97659.48;109396;1251;59063;-73
2023/12/13 03:20:30;;;;;;;39.80;30.10;;;;;;;3.03;100.00;97658.81;109557;1251;59007;-73
2023/12/13 03:22:57;;;;;;;42.90;31.90;;;;;;;3.01;100.00;97656.63;109598;1251;66024;-73
2023/12/13 03:25:23;;;;;;;46.20;32.00;;;;;;;3.00;100.00;97655.79;109639;1251;60840;-73
2023/12/13 03:27:51;;;;;;;40.40;29.80;;;;;;;3.00;100.00;97658.94;109631;1251;65069;-73
2023/12/13 03:30:17;;;;;;;44.10;30.20;;;;;;;3.01;100.00;97655.76;109600;1251;59376;-73
2023/12/13 03:32:44;;;;;;;37.90;29.30;;;;;;;3.00;100.00;97653.15;109609;1251;58879;-72
2023/12/13 03:35:11;;;;;;;41.10;30.20;;;;;;;3.01;100.00;97647.00;109602;1251;67166;-73
2023/12/13 03:37:37;;;;;;;38.30;29.40;;;;;;;3.01;100.00;97650.65;109560;1251;60103;-73
2023/12/13 03:40:05;;;;;;;38.20;28.80;;;;;;;3.01;100.00;97648.70;109571;1251;64596;-73
2023/12/13 03:42:32;;;;;;;38.70;29.50;;;;;;;3.01;100.00;97650.13;109567;1251;59018;-73
2023/12/13 03:44:58;;;;;;;39.80;29.40;;;;;;;3.01;100.00;97652.23;109548;1251;58923;-73
2023/12/13 03:47:25;;;;;;;38.10;30.40;;;;;;;3.02;100.00;97654.98;109551;1251;65995;-73
2023/12/13 03:49:51;;;;;;;44.70;29.70;;;;;;;3.02;100.00;97653.90;109394;1251;61093;-74
2023/12/13 03:52:18;;;;;;;41.90;30.00;;;;;;;3.03;100.00;97648.09;109543;1251;65127;-74
2023/12/13 03:54:45;;;;;;;36.70;28.40;;;;;;;3.04;100.00;97645.39;109547;1251;59021;-74
2023/12/13 03:57:11;;;;;;;36.80;28.20;;;;;;;3.05;100.00;97641.64;109515;1250;173180;-74
2023/12/13 03:59:38;;;;;;;38.40;27.80;;;;;;;3.05;100.00;97643.91;109571;1251;67243;-74
2023/12/13 04:02:05;;;;;;;35.70;28.30;;;;;;;3.06;100.00;97645.77;109587;1251;60157;-74
2023/12/13 04:04:31;;;;;;;38.40;28.10;;;;;;;3.08;100.00;97641.81;109586;1251;64082;-74
2023/12/13 04:06:59;;;;;;;35.90;27.70;;;;;;;3.09;100.00;97638.10;109586;1251;59162;-74
2023/12/13 04:09:26;;;;;;;40.50;29.30;;;;;;;3.10;100.00;97630.28;109589;1251;58998;-74
2023/12/13 04:11:52;;;;;;;38.90;27.40;;;;;;;3.13;100.00;97625.42;109572;1251;67135;-74
2023/12/13 04:14:19;;;;;;;31.30;26.10;;;;;;;3.14;100.00;97622.66;109625;1251;59930;-74
2023/12/13 04:16:46;;;;;;;37.30;26.70;;;;;;;3.16;100.00;97617.48;109568;1251;65255;-74
2023/12/13 04:19:13;;;;;;;33.70;25.30;;;;;;;3.18;100.00;97604.77;109571;1251;58956;-75
2023/12/13 04:21:39;;;;;;;34.90;26.70;;;;;;;3.19;100.00;97601.19;109603;1251;59037;-74
2023/12/13 04:24:06;;;;;;;36.60;27.00;;;;;;;3.21;100.00;97601.61;109597;1251;64793;-74
2023/12/13 04:26:33;;;;;;;36.70;26.00;;;;;;;3.22;100.00;97600.09;109599;1251;60048;-74
2023/12/13 04:28:59;;;;;;;33.50;26.30;;;;;;;3.24;100.00;97594.02;109520;1251;64810;-74
2023/12/13 04:31:26;;;;;;;32.90;25.90;;;;;;;3.25;100.00;97596.04;109591;1251;58977;-74
2023/12/13 04:33:53;;;;;;;33.20;25.10;;;;;;;3.26;100.00;97595.64;109591;1251;59078;-74
2023/12/13 04:36:19;;;;;;;30.90;24.80;;;;;;;3.26;100.00;97595.14;109612;1250;66211;-73
2023/12/13 04:38:46;;;;;;;32.50;22.40;;;;;;;3.26;100.00;97591.81;109579;1251;60179;-74
2023/12/13 04:41:13;;;;;;;32.30;23.30;;;;;;;3.26;100.00;97585.83;109563;1251;64044;-74
2023/12/13 04:43:39;;;;;;;36.30;24.80;;;;;;;3.25;100.00;97578.50;109594;1251;58984;-73
2023/12/13 04:46:06;;;;;;;33.20;23.70;;;;;;;3.26;100.00;97574.79;109546;1251;59022;-73
2023/12/13 04:48:33;;;;;;;32.00;23.60;;;;;;;3.27;100.00;97579.12;109582;1250;66170;-74
2023/12/13 04:50:59;;;;;;;31.00;23.50;;;;;;;3.27;100.00;97571.73;109597;1251;60135;-73
2023/12/13 04:53:26;;;;;;;33.60;24.40;;;;;;;3.27;100.00;97566.95;109478;1251;64095;-73
2023/12/13 04:55:52;;;;;;;33.60;25.20;;;;;;;3.27;100.00;97561.73;109539;1251;58921;-74
2023/12/13 04:58:19;;;;;;;32.30;25.50;;;;;;;3.27;100.00;97561.69;109567;1251;58996;-74
2023/12/13 05:00:46;;;;;;;31.10;23.90;;;;;;;3.27;100.00;97562.56;109600;1250;67268;-73
2023/12/13 05:03:12;;;;;;;34.20;26.30;;;;;;;3.27;100.00;97560.48;109413;1251;60199;-74
2023/12/13 05:05:39;;;;;;;29.90;24.50;;;;;;;3.26;100.00;97559.86;109577;1251;64017;-73
2023/12/13 05:08:11;;;;;;;36.10;27.40;;;;;;;3.25;100.00;97562.38;109568;1251;58914;-74
2023/12/13 05:10:43;;;;;;;35.20;26.50;;;;;;;3.24;100.00;97561.38;109581;1251;58992;-74
2023/12/13 05:13:10;;;;;;;33.00;26.50;;;;;;;3.23;100.00;97564.39;109598;1251;65941;-74
2023/12/13 05:15:36;;;;;;;34.60;28.70;;;;;;;3.23;100.00;97562.66;109590;1251;60086;-74
2023/12/13 05:18:04;;;;;;;35.90;27.90;;;;;;;3.23;100.00;97558.27;109540;1251;65020;-74
2023/12/13 05:20:31;;;;;;;38.10;26.90;;;;;;;3.23;100.00;97552.84;109550;1251;59097;-73
2023/12/13 05:22:57;;;;;;;37.80;27.40;;;;;;;3.23;100.00;97553.55;109579;1251;59015;-74
2023/12/13 05:25:24;;;;;;;36.40;27.00;;;;;;;3.23;100.00;97553.55;109616;1251;66968;-74
2023/12/13 05:27:51;;;;;;;38.40;28.70;;;;;;;3.22;100.00;97549.77;109554;1250;59731;-74
2023/12/13 05:30:18;;;;;;;39.90;29.40;;;;;;;3.22;100.00;97551.17;109562;1251;65086;-74
2023/12/13 05:32:44;;;;;;;38.90;31.10;;;;;;;3.22;100.00;97554.67;109554;1251;59697;-74
2023/12/13 05:35:11;;;;;;;40.30;30.50;;;;;;;3.22;100.00;97557.13;109589;1251;58895;-74
2023/12/13 05:37:38;;;;;;;42.20;33.40;;;;;;;3.22;100.00;97554.66;109614;1251;66349;-74
2023/12/13 05:40:05;;;;;;;43.60;32.40;;;;;;;3.21;100.00;97547.85;109630;1250;61181;-74
2023/12/13 05:42:33;;;;;;;43.90;33.80;;;;;;;3.20;100.00;97543.73;109558;1251;65071;-73
2023/12/13 05:45:00;;;;;;;39.50;30.70;;;;;;;3.19;100.00;97545.20;109529;1253;59048;-74
2023/12/13 05:47:28;;;;;;;45.60;33.80;;;;;;;3.17;100.00;97542.69;109570;1251;59037;-74
2023/12/13 05:49:55;;;;;;;38.60;29.90;;;;;;;3.15;100.00;97546.70;109612;1250;65984;-74
2023/12/13 05:52:21;;;;;;;41.10;31.50;;;;;;;3.13;100.00;97551.52;109553;1250;60047;-73
2023/12/13 05:54:48;;;;;;;41.20;31.90;;;;;;;3.12;100.00;97555.64;109598;1251;63989;-73
2023/12/13 05:57:14;;;;;;;38.70;30.60;;;;;;;3.10;100.00;97554.51;109537;1251;59103;-73
2023/12/13 05:59:42;;;;;;;38.90;31.60;;;;;;;3.09;100.00;97554.92;109601;1251;59052;-73
2023/12/13 06:02:08;;;;;;;41.60;31.60;;;;;;;3.09;100.00;97549.84;109574;1250;67354;-73
2023/12/13 06:04:35;;;;;;;41.20;32.70;;;;;;;3.07;100.00;97541.67;109413;1251;60597;-73
2023/12/13 06:07:02;;;;;;;38.30;30.60;;;;;;;3.06;100.00;97537.73;109565;1251;65164;-74
2023/12/13 06:09:29;;;;;;;43.10;32.80;;;;;;;3.04;100.00;97535.52;109542;1251;58889;-73
2023/12/13 06:11:55;;;;;;;36.20;28.10;;;;;;;3.03;100.00;97536.52;109591;1251;59019;-74
2023/12/13 06:14:22;;;;;;;41.60;31.90;;;;;;;3.00;100.00;97535.28;109563;1251;67012;-74
2023/12/13 06:16:48;;;;;;;41.00;33.20;;;;;;;2.98;100.00;97532.77;109603;1251;60027;-73
2023/12/13 06:19:15;;;;;;;45.40;33.90;;;;;;;2.96;100.00;97532.34;109510;1251;65012;-74
2023/12/13 06:21:42;;;;;;;44.50;30.70;;;;;;;2.95;100.00;97525.90;109538;1251;58961;-73
2023/12/13 06:24:08;;;;;;;43.20;32.00;;;;;;;2.96;100.00;97522.52;109561;1250;59013;-74
2023/12/13 06:26:35;;;;;;;46.60;32.50;;;;;;;2.95;100.00;97515.58;109578;1251;64725;-73
2023/12/13 06:29:01;;;;;;;42.50;32.60;;;;;;;2.93;100.00;97516.73;109562;1250;61048;-74
2023/12/13 06:31:28;;;;;;;42.40;33.80;;;;;;;2.93;100.00;97510.09;109549;1251;63716;-73
2023/12/13 06:33:55;;;;;;;49.30;33.60;;;;;;;2.94;100.00;97504.61;109272;1251;59136;-73
2023/12/13 06:36:21;;;;;;;44.20;32.90;;;;;;;2.95;100.00;97510.49;109545;1251;59039;-74
2023/12/13 06:38:48;;;;;;;45.30;33.50;;;;;;;2.95;100.00;97524.35;109590;1251;65786;-73
2023/12/13 06:41:15;;;;;;;44.40;35.60;;;;;;;2.96;100.00;97535.02;109568;1251;61857;-74
2023/12/13 06:43:42;;;;;;;46.40;34.50;;;;;;;2.96;100.00;97520.62;109549;1251;62529;-74
2023/12/13 06:46:08;;;;;;;46.40;36.30;;;;;;;2.97;100.00;97504.20;109582;1251;58979;-74
2023/12/13 06:48:35;;;;;;;45.60;34.70;;;;;;;2.98;100.00;97497.84;109624;1251;58956;-74
2023/12/13 06:51:01;;;;;;;45.60;33.80;;;;;;;2.99;100.00;97504.80;109551;1251;66998;-74
2023/12/13 06:53:28;;;;;;;45.20;35.40;;;;;;;2.99;100.00;97510.05;109565;1251;61245;-74
2023/12/13 06:55:55;;;;;;;41.00;33.70;;;;;;;2.99;100.00;97519.86;109608;1251;65169;-75
2023/12/13 06:58:22;;;;;;;45.40;36.60;;;;;;;2.99;100.00;97527.04;109540;1251;59638;-74
2023/12/13 07:00:49;;;;;;;44.70;33.40;;;;;;;3.00;100.00;97534.58;109537;1251;59344;-74
2023/12/13 07:03:15;;;;;;;41.60;31.80;;;;;;;2.99;100.00;97531.44;109568;1251;65988;-74
2023/12/13 07:05:42;;;;;;;35.30;29.30;;;;;;;2.99;100.00;97522.68;109592;1250;60982;-73
2023/12/13 07:08:09;;;;;;;40.40;30.10;;;;;;;2.99;100.00;97516.18;109534;1251;65047;-74
2023/12/13 07:10:35;;;;;;;36.90;29.30;;;;;;;3.00;100.00;97515.25;109539;1251;59043;-74
2023/12/13 07:13:02;;;;;;;37.80;30.50;;;;;;;3.02;100.00;97522.01;109595;1251;58925;-74
2023/12/13 07:15:28;;;;;;;38.40;31.50;;;;;;;3.01;100.00;97523.25;109586;1250;66051;-74
2023/12/13 07:17:55;;;;;;;37.30;28.60;;;;;;;3.03;100.00;97521.94;109537;1250;60112;-74
2023/12/13 07:20:22;;;;;;;42.00;30.60;;;;;;;3.04;100.00;97518.56;109591;1251;63822;-74
2023/12/13 07:22:51;;;;;;;37.80;29.50;;;;;;;3.04;100.00;97517.13;109337;1251;59043;-74
2023/12/13 07:25:18;;;;;;;43.70;31.50;;;;;;;3.06;100.00;97522.30;109646;1251;59028;-74
2023/12/13 07:27:47;;;;;;;40.60;31.70;;;;;;;3.06;100.00;97522.96;109543;1251;67022;-74
2023/12/13 07:30:14;;;;;;;43.80;32.60;;;;;;;3.06;100.00;97526.98;109590;1251;61040;-74
2023/12/13 07:32:41;;;;;;;46.30;32.90;;;;;;;3.07;100.00;97530.60;109546;1251;64464;-74
2023/12/13 07:35:08;;;;;;;57.80;39.50;;;;;;;3.09;100.00;97530.54;109564;1251;59181;-73
2023/12/13 07:37:35;;;;;;;75.50;45.90;;;;;;;3.08;100.00;97525.98;109561;1251;59199;-74
2023/12/13 07:40:03;;;;;;;80.20;49.10;;;;;;;3.09;100.00;97517.36;109518;1251;65935;-73
2023/12/13 07:42:31;;;;;;;67.00;47.60;;;;;;;3.10;100.00;97516.23;109268;1251;59692;-73
2023/12/13 07:44:58;;;;;;;57.40;40.50;;;;;;;3.12;100.00;97511.02;109570;1251;64015;-73
2023/12/13 07:47:25;;;;;;;53.10;37.10;;;;;;;3.14;100.00;97508.14;109542;1251;58949;-73
2023/12/13 07:49:53;;;;;;;49.20;36.70;;;;;;;3.16;100.00;97504.68;109608;1251;58874;-74
2023/12/13 07:52:19;;;;;;;63.10;43.90;;;;;;;3.17;100.00;97509.69;109574;1251;67035;-74
2023/12/13 07:54:48;;;;;;;66.70;45.40;;;;;;;3.20;100.00;97510.89;109575;1251;60053;-74
2023/12/13 07:57:15;;;;;;;55.20;38.30;;;;;;;3.23;100.00;97509.80;109587;1251;64051;-74
2023/12/13 07:59:42;;;;;;;43.30;33.20;;;;;;;3.25;100.00;97509.86;109582;1251;59052;-74
2023/12/13 08:02:09;;;;;;;45.90;35.60;;;;;;;3.26;100.00;97506.52;109567;1251;58931;-75
2023/12/13 08:04:35;;;;;;;40.20;31.10;;;;;;;3.26;100.00;97499.80;109558;1251;67101;-74
2023/12/13 08:07:02;;;;;;;36.30;28.90;;;;;;;3.28;100.00;97489.15;109523;1251;60179;-74
2023/12/13 08:09:30;;;;;;;38.00;30.20;;;;;;;3.31;100.00;97477.94;109508;1251;64113;-74
2023/12/13 08:11:56;;;;;;;37.20;31.00;;;;;;;3.33;100.00;97472.90;109244;1251;59022;-75
2023/12/13 08:14:26;;;;;;;39.60;30.80;;;;;;;3.33;100.00;97471.83;109530;1251;59225;-74
2023/12/13 08:16:53;;;;;;;43.20;31.90;;;;;;;3.33;100.00;97470.77;109549;1251;66142;-74
2023/12/13 08:19:19;;;;;;;40.70;33.70;;;;;;;3.36;100.00;97469.57;109543;1251;60124;-74
2023/12/13 08:21:46;;;;;;;36.20;29.20;;;;;;;3.36;100.00;97473.21;109604;1251;64790;-74
2023/12/13 08:24:13;;;;;;;38.00;30.00;;;;;;;3.37;100.00;97466.66;109621;1251;58924;-74
2023/12/13 08:26:39;;;;;;;39.00;29.50;;;;;;;3.40;100.00;97464.03;109531;1251;59040;-74
2023/12/13 08:29:06;;;;;;;39.30;30.70;;;;;;;3.42;100.00;97467.73;109440;1251;66854;-74
2023/12/13 08:31:33;;;;;;;40.50;30.40;;;;;;;3.46;100.00;97470.86;109560;1251;61241;-74
2023/12/13 08:34:00;;;;;;;45.10;40.40;;;;;;;3.50;100.00;97476.93;109541;1251;65126;-74
2023/12/13 08:36:27;;;;;;;43.20;38.40;;;;;;;3.55;100.00;97478.37;109593;1251;59821;-74
2023/12/13 08:38:54;;;;;;;36.10;29.90;;;;;;;3.62;100.00;97482.49;109623;1251;58977;-74
2023/12/13 08:41:21;;;;;;;45.30;38.30;;;;;;;3.66;100.00;97484.52;109571;1251;65656;-74
2023/12/13 08:43:48;;;;;;;41.40;36.90;;;;;;;3.67;100.00;97486.73;109557;1250;60288;-74
2023/12/13 08:46:14;;;;;;;42.60;38.10;;;;;;;3.68;100.00;97484.03;109591;1251;62760;-74
2023/12/13 08:48:41;;;;;;;37.20;31.20;;;;;;;3.71;100.00;97482.28;109571;1251;59028;-74
2023/12/13 08:51:08;;;;;;;36.40;29.80;;;;;;;3.75;100.00;97475.73;109592;1251;58963;-74
2023/12/13 08:53:34;;;;;;;32.50;28.30;;;;;;;3.79;100.00;97473.89;109251;1254;65664;-74
2023/12/13 08:56:01;;;;;;;34.40;28.00;;;;;;;3.81;100.00;97472.31;109566;1250;60958;-73
2023/12/13 08:58:28;;;;;;;34.30;28.70;;;;;;;3.85;100.00;97476.30;109594;1251;65136;-73
2023/12/13 09:00:54;;;;;;;34.20;29.10;;;;;;;3.90;100.00;97476.48;109550;1251;58976;-73
2023/12/13 09:03:21;;;;;;;30.50;26.60;;;;;;;3.94;100.00;97479.77;109529;1251;59079;-73
2023/12/13 09:05:49;;;;;;;33.20;28.20;;;;;;;3.94;100.00;97481.13;109499;1251;67345;-73
2023/12/13 09:08:15;;;;;;;34.50;30.50;;;;;;;3.94;100.00;97485.72;109593;1250;61082;-73
2023/12/13 09:10:42;;;;;;;100.80;65.10;;;;;;;3.97;100.00;97491.69;109553;1251;64033;-73
2023/12/13 09:13:09;;;;;;;60.10;44.20;;;;;;;3.97;100.00;97489.95;109541;1251;58969;-73
2023/12/13 09:15:35;;;;;;;46.90;39.30;;;;;;;3.95;100.00;97482.16;109538;1251;59191;-73
2023/12/13 09:18:02;;;;;;;52.40;46.80;;;;;;;3.93;100.00;97484.20;109621;1250;67056;-74
2023/12/13 09:20:29;;;;;;;49.20;39.60;;;;;;;3.92;100.00;97486.73;109607;1250;60181;-73
2023/12/13 09:22:55;;;;;;;36.10;31.10;;;;;;;3.89;100.00;97490.26;109324;1251;64057;-74
2023/12/13 09:25:22;;;;;;;39.10;34.70;;;;;;;3.86;100.00;97482.51;109586;1251;59096;-74
2023/12/13 09:27:49;;;;;;;47.80;41.70;;;;;;;3.86;100.00;97483.73;109527;1251;59042;-74
2023/12/13 09:30:16;;;;;;;44.40;37.90;;;;;;;3.88;100.00;97484.20;109593;1251;65934;-74
2023/12/13 09:32:43;;;;;;;42.40;35.80;;;;;;;3.89;100.00;97484.11;109560;1250;61287;-73
2023/12/13 09:35:09;;;;;;;50.00;41.50;;;;;;;3.90;100.00;97485.96;109551;1251;64005;-74
2023/12/13 09:37:36;;;;;;;51.00;43.70;;;;;;;3.91;100.00;97484.84;109414;1251;59286;-74
2023/12/13 09:40:03;;;;;;;48.20;37.90;;;;;;;3.93;100.00;97484.73;109559;1251;59008;-74
2023/12/13 09:42:32;;;;;;;48.80;42.30;;;;;;;3.95;100.00;97484.06;109598;1251;66740;-74
2023/12/13 09:45:03;;;;;;;45.20;33.60;;;;;;;4.01;100.00;97483.89;109565;1251;60142;-74
2023/12/13 09:47:32;;;;;;;37.40;31.80;;;;;;;4.03;100.00;97479.89;109301;1251;65608;-73
2023/12/13 09:49:59;;;;;;;36.90;30.40;;;;;;;4.01;100.00;97483.13;109520;1251;59090;-74
2023/12/13 09:52:27;;;;;;;37.20;28.20;;;;;;;4.03;100.00;97484.08;109582;1251;58977;-74
2023/12/13 09:54:55;;;;;;;34.40;28.50;;;;;;;4.02;100.00;97492.24;109578;1255;65917;-74
2023/12/13 09:57:24;;;;;;;33.40;29.50;;;;;;;4.00;100.00;97491.67;109532;1251;59002;-73
2023/12/13 09:59:50;;;;;;;34.90;29.60;;;;;;;3.98;100.00;97486.69;109569;1251;64000;-74
2023/12/13 10:02:17;;;;;;;36.20;29.60;;;;;;;3.99;100.00;97482.45;109322;1251;59040;-73
2023/12/13 10:04:44;;;;;;;37.80;30.10;;;;;;;3.99;100.00;97476.97;109579;1251;58978;-74
2023/12/13 10:07:11;;;;;;;38.40;31.20;;;;;;;4.01;100.00;97473.18;109582;1250;67092;-73
2023/12/13 10:09:38;;;;;;;37.70;32.40;;;;;;;4.03;100.00;97471.63;109614;1251;60222;-73
2023/12/13 10:12:07;;;;;;;35.60;31.80;;;;;;;4.06;100.00;97471.60;109586;1251;65228;-74
2023/12/13 10:14:36;;;;;;;35.50;31.80;;;;;;;4.08;100.00;97463.39;109517;1251;58948;-74
2023/12/13 10:17:03;;;;;;;44.00;37.00;;;;;;;4.09;100.00;97452.75;109320;1251;59035;-75
2023/12/13 10:19:32;;;;;;;42.30;35.70;;;;;;;4.11;100.00;97451.55;109566;1251;67050;-74
2023/12/13 10:21:59;;;;;;;42.60;35.20;;;;;;;4.16;100.00;97450.71;109561;1254;60000;-74
2023/12/13 10:24:27;;;;;;;42.20;35.90;;;;;;;4.21;100.00;97446.73;109512;1251;65215;-74
2023/12/13 10:26:54;;;;;;;43.50;35.20;;;;;;;4.26;100.00;97441.83;109531;1251;59016;-74
2023/12/13 10:29:21;;;;;;;42.00;33.90;;;;;;;4.26;100.00;97436.73;109551;1251;58870;-74
2023/12/13 10:31:47;;;;;;;37.70;33.40;;;;;;;4.26;100.00;97431.82;109545;1251;67445;-74
2023/12/13 10:34:15;;;;;;;40.30;33.90;;;;;;;4.26;100.00;97428.96;109577;1251;61103;-74
2023/12/13 10:36:42;;;;;;;77.10;55.60;;;;;;;4.30;100.00;97422.04;109570;1251;64157;-74
2023/12/13 10:39:13;;;;;;;58.40;47.20;;;;;;;4.38;100.00;97423.07;109530;1251;58924;-74
2023/12/13 10:41:44;;;;;;;38.50;34.60;;;;;;;4.46;100.00;97417.64;109222;1252;59334;-74
2023/12/13 10:44:18;;;;;;;45.90;37.50;;;;;;;4.51;100.00;97411.83;109487;1252;65784;-74
2023/12/13 10:46:48;;;;;;;46.00;40.30;;;;;;;4.59;100.00;97406.90;109449;1254;60991;-74
2023/12/13 10:49:19;;;;;;;;;;;;;;;4.68;100.00;97405.58;109441;1253;65112;-74
2023/12/13 10:51:47;;;;;;;45.90;39.50;;;;;;;4.71;100.00;97398.86;109447;1254;59037;-74
2023/12/13 10:54:14;;;;;;;46.50;40.00;;;;;;;4.74;100.00;97397.75;109471;1252;58881;-74
2023/12/13 10:56:42;;;;;;;54.20;45.20;;;;;;;4.80;100.00;97388.73;109317;1254;66915;-74
2023/12/13 10:59:10;;;;;;;53.90;47.40;;;;;;;4.84;100.00;97382.80;109461;1252;61010;-74
2023/12/13 11:01:39;;;;;;;56.20;48.20;;;;;;;4.91;100.00;97378.27;109495;1254;64097;-75
2023/12/13 11:04:09;;;;;;;50.90;41.10;;;;;;;4.97;100.00;97373.10;109474;1253;59035;-74
2023/12/13 11:06:39;;;;;;;49.10;40.00;;;;;;;5.02;100.00;97368.71;109491;1253;59050;-75
2023/12/13 11:09:21;;;;;;;45.40;39.70;;;;;;;5.04;100.00;97366.45;109498;1251;67100;-74